sensor_id;sensor_type;location;lat;lon;timestamp;P1;durP1;ratioP1;P2;durP2;ratioP2
11173;SDS011;5643;50.856;12.088;2023-02-20T00:00:17;2.20;;;2.10;;
11173;SDS011;5643;50.856;12.088;2023-02-20T00:02:47;2.43;;;2.33;;
11173;SDS011;5643;50.856;12.088;2023-02-20T00:05:15;2.03;;;1.93;;
11173;SDS011;5643;50.856;12.088;2023-02-20T00:07:43;2.43;;;2.33;;
11173;SDS011;5643;50.856;12.088;2023-02-20T00:10:10;2.50;;;2.40;;
11173;SDS011;5643;50.856;12.088;2023-02-20T00:12:37;2.50;;;2.30;;
11173;SDS011;5643;50.856;12.088;2023-02-20T00:15:05;2.43;;;2.23;;
11173;SDS011;5643;50.856;12.088;2023-02-20T00:17:34;2.63;;;2.43;;
11173;SDS011;5643;50.856;12.088;2023-02-20T00:20:03;2.57;;;2.40;;
11173;SDS011;5643;50.856;12.088;2023-02-20T00:22:32;2.40;;;2.30;;
11173;SDS011;5643;50.856;12.088;2023-02-20T00:24:59;2.40;;;2.30;;
11173;SDS011;5643;50.856;12.088;2023-02-20T00:27:27;3.10;;;2.90;;
11173;SDS011;5643;50.856;12.088;2023-02-20T00:29:54;2.67;;;2.53;;
11173;SDS011;5643;50.856;12.088;2023-02-20T00:32:23;2.90;;;2.70;;
11173;SDS011;5643;50.856;12.088;2023-02-20T00:34:51;2.90;;;2.70;;
11173;SDS011;5643;50.856;12.088;2023-02-20T00:37:20;2.90;;;2.70;;
11173;SDS011;5643;50.856;12.088;2023-02-20T00:39:47;2.90;;;2.70;;
11173;SDS011;5643;50.856;12.088;2023-02-20T00:42:14;2.70;;;2.50;;
11173;SDS011;5643;50.856;12.088;2023-02-20T00:44:41;2.50;;;2.40;;
11173;SDS011;5643;50.856;12.088;2023-02-20T00:47:09;2.60;;;2.40;;
11173;SDS011;5643;50.856;12.088;2023-02-20T00:49:36;2.83;;;2.63;;
11173;SDS011;5643;50.856;12.088;2023-02-20T00:52:03;2.50;;;2.40;;
11173;SDS011;5643;50.856;12.088;2023-02-20T00:54:32;2.07;;;1.97;;
11173;SDS011;5643;50.856;12.088;2023-02-20T00:56:59;2.70;;;2.50;;
11173;SDS011;5643;50.856;12.088;2023-02-20T00:59:26;2.33;;;2.23;;
11173;SDS011;5643;50.856;12.088;2023-02-20T01:01:53;2.20;;;2.10;;
11173;SDS011;5643;50.856;12.088;2023-02-20T01:04:21;2.00;;;1.90;;
11173;SDS011;5643;50.856;12.088;2023-02-20T01:06:48;2.33;;;2.20;;
11173;SDS011;5643;50.856;12.088;2023-02-20T01:09:15;1.80;;;1.70;;
11173;SDS011;5643;50.856;12.088;2023-02-20T01:11:44;2.03;;;1.93;;
11173;SDS011;5643;50.856;12.088;2023-02-20T01:14:12;2.07;;;1.97;;
11173;SDS011;5643;50.856;12.088;2023-02-20T01:16:42;2.00;;;1.90;;
11173;SDS011;5643;50.856;12.088;2023-02-20T01:19:10;2.00;;;1.90;;
11173;SDS011;5643;50.856;12.088;2023-02-20T01:21:37;2.00;;;1.90;;
11173;SDS011;5643;50.856;12.088;2023-02-20T01:24:04;2.20;;;2.10;;
11173;SDS011;5643;50.856;12.088;2023-02-20T01:26:32;2.00;;;1.90;;
11173;SDS011;5643;50.856;12.088;2023-02-20T01:29:03;2.10;;;2.00;;
11173;SDS011;5643;50.856;12.088;2023-02-20T01:31:34;2.30;;;2.10;;
11173;SDS011;5643;50.856;12.088;2023-02-20T01:34:01;2.00;;;1.90;;
11173;SDS011;5643;50.856;12.088;2023-02-20T01:36:29;2.57;;;2.37;;
11173;SDS011;5643;50.856;12.088;2023-02-20T01:38:59;2.30;;;2.20;;
11173;SDS011;5643;50.856;12.088;2023-02-20T01:41:27;2.27;;;2.17;;
11173;SDS011;5643;50.856;12.088;2023-02-20T01:43:55;2.33;;;2.23;;
11173;SDS011;5643;50.856;12.088;2023-02-20T01:49:11;2.37;;;2.27;;
11173;SDS011;5643;50.856;12.088;2023-02-20T01:51:41;2.47;;;2.27;;
11173;SDS011;5643;50.856;12.088;2023-02-20T01:54:10;2.80;;;2.60;;
11173;SDS011;5643;50.856;12.088;2023-02-20T01:56:38;2.63;;;2.43;;
11173;SDS011;5643;50.856;12.088;2023-02-20T01:59:06;2.20;;;2.10;;
11173;SDS011;5643;50.856;12.088;2023-02-20T02:01:34;2.73;;;2.53;;
11173;SDS011;5643;50.856;12.088;2023-02-20T02:04:02;2.80;;;2.60;;
11173;SDS011;5643;50.856;12.088;2023-02-20T02:06:33;2.70;;;2.50;;
11173;SDS011;5643;50.856;12.088;2023-02-20T02:09:02;2.73;;;2.53;;
11173;SDS011;5643;50.856;12.088;2023-02-20T02:11:31;2.97;;;2.77;;
11173;SDS011;5643;50.856;12.088;2023-02-20T02:14:01;2.80;;;2.60;;
11173;SDS011;5643;50.856;12.088;2023-02-20T02:16:31;3.67;;;3.37;;
11173;SDS011;5643;50.856;12.088;2023-02-20T02:19:03;3.33;;;3.13;;
11173;SDS011;5643;50.856;12.088;2023-02-20T02:27:19;4.00;;;3.70;;
11173;SDS011;5643;50.856;12.088;2023-02-20T02:30:00;3.93;;;3.63;;
11173;SDS011;5643;50.856;12.088;2023-02-20T02:37:57;4.10;;;3.80;;
11173;SDS011;5643;50.856;12.088;2023-02-20T02:40:28;3.60;;;3.40;;
11173;SDS011;5643;50.856;12.088;2023-02-20T02:42:59;4.00;;;3.70;;
11173;SDS011;5643;50.856;12.088;2023-02-20T02:45:32;3.67;;;3.37;;
11173;SDS011;5643;50.856;12.088;2023-02-20T02:48:04;3.70;;;3.40;;
11173;SDS011;5643;50.856;12.088;2023-02-20T02:50:32;3.83;;;3.53;;
11173;SDS011;5643;50.856;12.088;2023-02-20T02:53:03;3.67;;;3.37;;
11173;SDS011;5643;50.856;12.088;2023-02-20T02:55:31;3.20;;;3.00;;
11173;SDS011;5643;50.856;12.088;2023-02-20T02:57:59;3.40;;;3.20;;
11173;SDS011;5643;50.856;12.088;2023-02-20T03:00:27;3.67;;;3.37;;
11173;SDS011;5643;50.856;12.088;2023-02-20T03:02:57;3.53;;;3.27;;
11173;SDS011;5643;50.856;12.088;2023-02-20T03:05:28;3.40;;;3.20;;
11173;SDS011;5643;50.856;12.088;2023-02-20T03:08:08;3.10;;;2.90;;
11173;SDS011;5643;50.856;12.088;2023-02-20T03:10:39;3.77;;;3.47;;
11173;SDS011;5643;50.856;12.088;2023-02-20T03:13:06;3.40;;;3.10;;
11173;SDS011;5643;50.856;12.088;2023-02-20T03:15:38;3.10;;;2.90;;
11173;SDS011;5643;50.856;12.088;2023-02-20T03:18:14;3.23;;;3.03;;
11173;SDS011;5643;50.856;12.088;2023-02-20T03:20:45;3.20;;;3.00;;
11173;SDS011;5643;50.856;12.088;2023-02-20T03:23:16;3.27;;;3.07;;
11173;SDS011;5643;50.856;12.088;2023-02-20T03:25:46;3.13;;;2.93;;
11173;SDS011;5643;50.856;12.088;2023-02-20T03:28:16;3.90;;;3.60;;
11173;SDS011;5643;50.856;12.088;2023-02-20T03:30:45;3.10;;;2.90;;
11173;SDS011;5643;50.856;12.088;2023-02-20T03:33:16;3.13;;;2.87;;
11173;SDS011;5643;50.856;12.088;2023-02-20T03:36:02;3.67;;;3.37;;
11173;SDS011;5643;50.856;12.088;2023-02-20T03:38:51;3.50;;;3.20;;
11173;SDS011;5643;50.856;12.088;2023-02-20T03:41:37;3.33;;;3.10;;
11173;SDS011;5643;50.856;12.088;2023-02-20T03:44:23;3.00;;;2.80;;
11173;SDS011;5643;50.856;12.088;2023-02-20T03:46:52;3.10;;;2.90;;
11173;SDS011;5643;50.856;12.088;2023-02-20T03:49:20;3.10;;;2.90;;
11173;SDS011;5643;50.856;12.088;2023-02-20T03:51:48;3.30;;;3.10;;
11173;SDS011;5643;50.856;12.088;2023-02-20T03:54:17;3.17;;;2.97;;
11173;SDS011;5643;50.856;12.088;2023-02-20T03:56:45;2.93;;;2.73;;
11173;SDS011;5643;50.856;12.088;2023-02-20T03:59:21;3.00;;;2.80;;
11173;SDS011;5643;50.856;12.088;2023-02-20T04:01:49;3.60;;;3.30;;
11173;SDS011;5643;50.856;12.088;2023-02-20T04:04:19;3.47;;;3.17;;
11173;SDS011;5643;50.856;12.088;2023-02-20T04:06:48;3.37;;;3.13;;
11173;SDS011;5643;50.856;12.088;2023-02-20T04:09:18;2.90;;;2.70;;
11173;SDS011;5643;50.856;12.088;2023-02-20T04:11:48;2.80;;;2.60;;
11173;SDS011;5643;50.856;12.088;2023-02-20T04:14:17;3.20;;;2.90;;
11173;SDS011;5643;50.856;12.088;2023-02-20T04:16:48;2.80;;;2.60;;
11173;SDS011;5643;50.856;12.088;2023-02-20T04:19:16;2.67;;;2.47;;
11173;SDS011;5643;50.856;12.088;2023-02-20T04:21:44;2.60;;;2.40;;
11173;SDS011;5643;50.856;12.088;2023-02-20T04:24:14;2.87;;;2.67;;
11173;SDS011;5643;50.856;12.088;2023-02-20T04:26:44;2.80;;;2.60;;
11173;SDS011;5643;50.856;12.088;2023-02-20T04:29:12;2.30;;;2.20;;
11173;SDS011;5643;50.856;12.088;2023-02-20T04:31:39;2.60;;;2.40;;
11173;SDS011;5643;50.856;12.088;2023-02-20T04:34:07;2.57;;;2.43;;
11173;SDS011;5643;50.856;12.088;2023-02-20T04:36:35;2.33;;;2.23;;
11173;SDS011;5643;50.856;12.088;2023-02-20T04:39:03;2.70;;;2.50;;
11173;SDS011;5643;50.856;12.088;2023-02-20T04:41:30;2.60;;;2.40;;
11173;SDS011;5643;50.856;12.088;2023-02-20T04:43:59;2.87;;;2.67;;
11173;SDS011;5643;50.856;12.088;2023-02-20T04:46:39;2.70;;;2.50;;
11173;SDS011;5643;50.856;12.088;2023-02-20T04:49:07;2.83;;;2.63;;
11173;SDS011;5643;50.856;12.088;2023-02-20T04:51:34;2.53;;;2.33;;
11173;SDS011;5643;50.856;12.088;2023-02-20T04:54:01;2.77;;;2.57;;
11173;SDS011;5643;50.856;12.088;2023-02-20T04:56:28;2.87;;;2.67;;
11173;SDS011;5643;50.856;12.088;2023-02-20T04:58:56;3.30;;;3.00;;
11173;SDS011;5643;50.856;12.088;2023-02-20T05:01:25;3.00;;;2.77;;
11173;SDS011;5643;50.856;12.088;2023-02-20T05:03:52;3.07;;;2.87;;
11173;SDS011;5643;50.856;12.088;2023-02-20T05:06:19;2.60;;;2.40;;
11173;SDS011;5643;50.856;12.088;2023-02-20T05:08:47;3.13;;;2.93;;
11173;SDS011;5643;50.856;12.088;2023-02-20T05:11:19;2.77;;;2.57;;
11173;SDS011;5643;50.856;12.088;2023-02-20T05:13:46;3.27;;;3.07;;
11173;SDS011;5643;50.856;12.088;2023-02-20T05:16:13;2.87;;;2.67;;
11173;SDS011;5643;50.856;12.088;2023-02-20T05:18:43;3.03;;;2.83;;
11173;SDS011;5643;50.856;12.088;2023-02-20T05:21:12;3.13;;;2.93;;
11173;SDS011;5643;50.856;12.088;2023-02-20T05:23:56;3.00;;;2.80;;
11173;SDS011;5643;50.856;12.088;2023-02-20T05:26:24;2.87;;;2.67;;
11173;SDS011;5643;50.856;12.088;2023-02-20T05:28:51;2.87;;;2.60;;
11173;SDS011;5643;50.856;12.088;2023-02-20T05:31:20;2.80;;;2.60;;
11173;SDS011;5643;50.856;12.088;2023-02-20T05:33:49;2.73;;;2.53;;
11173;SDS011;5643;50.856;12.088;2023-02-20T05:36:16;2.90;;;2.70;;
11173;SDS011;5643;50.856;12.088;2023-02-20T05:38:44;2.67;;;2.47;;
11173;SDS011;5643;50.856;12.088;2023-02-20T05:41:14;3.10;;;2.63;;
11173;SDS011;5643;50.856;12.088;2023-02-20T05:43:42;2.97;;;2.77;;
11173;SDS011;5643;50.856;12.088;2023-02-20T05:46:10;2.83;;;2.63;;
11173;SDS011;5643;50.856;12.088;2023-02-20T05:48:38;2.50;;;2.30;;
11173;SDS011;5643;50.856;12.088;2023-02-20T05:51:19;2.60;;;2.40;;
11173;SDS011;5643;50.856;12.088;2023-02-20T05:53:47;2.60;;;2.40;;
11173;SDS011;5643;50.856;12.088;2023-02-20T05:56:15;2.63;;;2.43;;
11173;SDS011;5643;50.856;12.088;2023-02-20T05:58:42;3.13;;;2.93;;
11173;SDS011;5643;50.856;12.088;2023-02-20T06:01:15;3.23;;;3.00;;
11173;SDS011;5643;50.856;12.088;2023-02-20T06:03:42;3.00;;;2.80;;
11173;SDS011;5643;50.856;12.088;2023-02-20T06:06:10;3.10;;;2.90;;
11173;SDS011;5643;50.856;12.088;2023-02-20T06:08:40;3.10;;;2.90;;
11173;SDS011;5643;50.856;12.088;2023-02-20T06:11:08;3.00;;;2.80;;
11173;SDS011;5643;50.856;12.088;2023-02-20T06:13:36;2.60;;;2.50;;
11173;SDS011;5643;50.856;12.088;2023-02-20T06:16:05;3.40;;;3.20;;
11173;SDS011;5643;50.856;12.088;2023-02-20T06:18:33;3.70;;;3.50;;
11173;SDS011;5643;50.856;12.088;2023-02-20T06:21:00;3.90;;;3.60;;
11173;SDS011;5643;50.856;12.088;2023-02-20T06:23:31;3.90;;;3.60;;
11173;SDS011;5643;50.856;12.088;2023-02-20T06:26:00;4.10;;;3.80;;
11173;SDS011;5643;50.856;12.088;2023-02-20T06:28:27;4.10;;;3.80;;
11173;SDS011;5643;50.856;12.088;2023-02-20T06:30:58;4.47;;;4.17;;
11173;SDS011;5643;50.856;12.088;2023-02-20T06:33:25;4.40;;;4.00;;
11173;SDS011;5643;50.856;12.088;2023-02-20T06:35:52;3.73;;;3.50;;
11173;SDS011;5643;50.856;12.088;2023-02-20T06:38:20;3.60;;;3.40;;
11173;SDS011;5643;50.856;12.088;2023-02-20T06:40:48;4.07;;;3.77;;
11173;SDS011;5643;50.856;12.088;2023-02-20T06:43:21;3.63;;;3.40;;
11173;SDS011;5643;50.856;12.088;2023-02-20T06:45:59;4.13;;;3.83;;
11173;SDS011;5643;50.856;12.088;2023-02-20T06:48:28;3.50;;;3.30;;
11173;SDS011;5643;50.856;12.088;2023-02-20T06:50:56;3.57;;;3.37;;
11173;SDS011;5643;50.856;12.088;2023-02-20T06:53:24;3.60;;;3.40;;
11173;SDS011;5643;50.856;12.088;2023-02-20T06:55:51;3.20;;;3.00;;
11173;SDS011;5643;50.856;12.088;2023-02-20T06:58:21;3.30;;;3.00;;
11173;SDS011;5643;50.856;12.088;2023-02-20T07:00:48;3.50;;;3.30;;
11173;SDS011;5643;50.856;12.088;2023-02-20T07:03:15;3.57;;;3.37;;
11173;SDS011;5643;50.856;12.088;2023-02-20T07:05:42;3.30;;;3.10;;
11173;SDS011;5643;50.856;12.088;2023-02-20T07:08:14;3.50;;;3.30;;
11173;SDS011;5643;50.856;12.088;2023-02-20T07:10:45;4.10;;;3.80;;
11173;SDS011;5643;50.856;12.088;2023-02-20T07:13:12;4.00;;;3.70;;
11173;SDS011;5643;50.856;12.088;2023-02-20T07:15:42;3.83;;;3.53;;
11173;SDS011;5643;50.856;12.088;2023-02-20T07:18:11;4.00;;;3.70;;
11173;SDS011;5643;50.856;12.088;2023-02-20T07:20:45;4.37;;;4.07;;
11173;SDS011;5643;50.856;12.088;2023-02-20T07:23:14;4.10;;;3.80;;
11173;SDS011;5643;50.856;12.088;2023-02-20T07:25:42;4.70;;;4.30;;
11173;SDS011;5643;50.856;12.088;2023-02-20T07:28:10;4.23;;;3.93;;
11173;SDS011;5643;50.856;12.088;2023-02-20T07:30:37;4.50;;;4.20;;
11173;SDS011;5643;50.856;12.088;2023-02-20T07:33:06;4.83;;;4.43;;
11173;SDS011;5643;50.856;12.088;2023-02-20T07:35:38;5.27;;;4.87;;
11173;SDS011;5643;50.856;12.088;2023-02-20T07:38:05;5.10;;;4.70;;
11173;SDS011;5643;50.856;12.088;2023-02-20T07:40:32;4.33;;;3.93;;
11173;SDS011;5643;50.856;12.088;2023-02-20T07:43:02;4.47;;;4.13;;
11173;SDS011;5643;50.856;12.088;2023-02-20T07:45:30;3.80;;;3.50;;
11173;SDS011;5643;50.856;12.088;2023-02-20T07:47:58;3.90;;;3.60;;
11173;SDS011;5643;50.856;12.088;2023-02-20T07:50:27;3.47;;;3.27;;
11173;SDS011;5643;50.856;12.088;2023-02-20T07:52:54;3.17;;;2.97;;
11173;SDS011;5643;50.856;12.088;2023-02-20T07:55:22;3.17;;;2.93;;
11173;SDS011;5643;50.856;12.088;2023-02-20T07:57:49;3.40;;;3.20;;
11173;SDS011;5643;50.856;12.088;2023-02-20T08:00:19;3.30;;;3.10;;
11173;SDS011;5643;50.856;12.088;2023-02-20T08:02:46;3.00;;;2.80;;
11173;SDS011;5643;50.856;12.088;2023-02-20T08:05:13;3.60;;;3.30;;
11173;SDS011;5643;50.856;12.088;2023-02-20T08:07:44;3.10;;;2.90;;
11173;SDS011;5643;50.856;12.088;2023-02-20T08:10:13;2.93;;;2.73;;
11173;SDS011;5643;50.856;12.088;2023-02-20T08:12:40;2.93;;;2.73;;
11173;SDS011;5643;50.856;12.088;2023-02-20T08:15:07;2.57;;;2.37;;
11173;SDS011;5643;50.856;12.088;2023-02-20T08:17:37;3.10;;;2.90;;
11173;SDS011;5643;50.856;12.088;2023-02-20T08:20:06;2.90;;;2.70;;
11173;SDS011;5643;50.856;12.088;2023-02-20T08:22:33;2.60;;;2.40;;
11173;SDS011;5643;50.856;12.088;2023-02-20T08:25:07;2.60;;;2.40;;
11173;SDS011;5643;50.856;12.088;2023-02-20T08:27:34;2.57;;;2.37;;
11173;SDS011;5643;50.856;12.088;2023-02-20T08:30:03;2.20;;;2.00;;
11173;SDS011;5643;50.856;12.088;2023-02-20T08:32:34;2.23;;;2.03;;
11173;SDS011;5643;50.856;12.088;2023-02-20T08:35:02;2.30;;;2.10;;
11173;SDS011;5643;50.856;12.088;2023-02-20T08:37:32;2.10;;;2.00;;
11173;SDS011;5643;50.856;12.088;2023-02-20T08:40:00;2.00;;;1.90;;
11173;SDS011;5643;50.856;12.088;2023-02-20T08:42:33;2.40;;;2.20;;
11173;SDS011;5643;50.856;12.088;2023-02-20T08:45:01;2.00;;;1.90;;
11173;SDS011;5643;50.856;12.088;2023-02-20T08:47:28;1.60;;;1.50;;
11173;SDS011;5643;50.856;12.088;2023-02-20T08:49:56;1.90;;;1.80;;
11173;SDS011;5643;50.856;12.088;2023-02-20T08:52:23;1.80;;;1.70;;
11173;SDS011;5643;50.856;12.088;2023-02-20T08:54:51;1.80;;;1.70;;
11173;SDS011;5643;50.856;12.088;2023-02-20T08:57:18;1.60;;;1.50;;
11173;SDS011;5643;50.856;12.088;2023-02-20T08:59:46;1.50;;;1.40;;
11173;SDS011;5643;50.856;12.088;2023-02-20T09:02:15;1.90;;;1.80;;
11173;SDS011;5643;50.856;12.088;2023-02-20T09:04:42;2.50;;;1.60;;
11173;SDS011;5643;50.856;12.088;2023-02-20T09:07:10;1.63;;;1.53;;
11173;SDS011;5643;50.856;12.088;2023-02-20T09:09:37;1.50;;;1.40;;
11173;SDS011;5643;50.856;12.088;2023-02-20T09:12:05;1.10;;;1.10;;
11173;SDS011;5643;50.856;12.088;2023-02-20T09:14:32;1.30;;;1.20;;
11173;SDS011;5643;50.856;12.088;2023-02-20T09:17:01;1.10;;;1.10;;
11173;SDS011;5643;50.856;12.088;2023-02-20T09:19:28;1.40;;;1.30;;
11173;SDS011;5643;50.856;12.088;2023-02-20T09:21:56;1.50;;;1.40;;
11173;SDS011;5643;50.856;12.088;2023-02-20T09:24:23;1.43;;;1.33;;
11173;SDS011;5643;50.856;12.088;2023-02-20T09:26:52;1.40;;;1.30;;
11173;SDS011;5643;50.856;12.088;2023-02-20T09:29:20;2.00;;;1.50;;
11173;SDS011;5643;50.856;12.088;2023-02-20T09:31:47;1.20;;;1.17;;
11173;SDS011;5643;50.856;12.088;2023-02-20T09:34:16;1.43;;;1.33;;
11173;SDS011;5643;50.856;12.088;2023-02-20T09:36:46;1.20;;;1.10;;
11173;SDS011;5643;50.856;12.088;2023-02-20T09:39:14;1.40;;;1.30;;
11173;SDS011;5643;50.856;12.088;2023-02-20T09:41:49;1.50;;;1.40;;
11173;SDS011;5643;50.856;12.088;2023-02-20T09:44:21;1.93;;;1.47;;
11173;SDS011;5643;50.856;12.088;2023-02-20T09:46:50;1.40;;;1.30;;
11173;SDS011;5643;50.856;12.088;2023-02-20T09:49:21;1.47;;;1.37;;
11173;SDS011;5643;50.856;12.088;2023-02-20T09:51:50;1.50;;;1.40;;
11173;SDS011;5643;50.856;12.088;2023-02-20T09:54:20;1.50;;;1.40;;
11173;SDS011;5643;50.856;12.088;2023-02-20T09:56:49;1.47;;;1.37;;
11173;SDS011;5643;50.856;12.088;2023-02-20T09:59:18;1.73;;;1.27;;
11173;SDS011;5643;50.856;12.088;2023-02-20T10:01:50;1.80;;;1.70;;
11173;SDS011;5643;50.856;12.088;2023-02-20T10:04:19;2.00;;;1.40;;
11173;SDS011;5643;50.856;12.088;2023-02-20T10:06:49;1.40;;;1.30;;
11173;SDS011;5643;50.856;12.088;2023-02-20T10:09:16;2.17;;;1.80;;
11173;SDS011;5643;50.856;12.088;2023-02-20T10:11:45;1.70;;;1.60;;
11173;SDS011;5643;50.856;12.088;2023-02-20T10:14:19;2.00;;;1.80;;
11173;SDS011;5643;50.856;12.088;2023-02-20T10:16:50;1.80;;;1.70;;
11173;SDS011;5643;50.856;12.088;2023-02-20T10:19:21;1.33;;;1.23;;
11173;SDS011;5643;50.856;12.088;2023-02-20T10:21:55;1.57;;;1.47;;
11173;SDS011;5643;50.856;12.088;2023-02-20T10:24:33;1.40;;;1.20;;
11173;SDS011;5643;50.856;12.088;2023-02-20T10:27:11;2.33;;;1.50;;
11173;SDS011;5643;50.856;12.088;2023-02-20T10:29:43;1.70;;;1.40;;
11173;SDS011;5643;50.856;12.088;2023-02-20T10:32:15;1.33;;;1.23;;
11173;SDS011;5643;50.856;12.088;2023-02-20T10:34:48;1.50;;;1.33;;
11173;SDS011;5643;50.856;12.088;2023-02-20T10:37:19;1.60;;;1.33;;
11173;SDS011;5643;50.856;12.088;2023-02-20T10:39:47;1.30;;;1.20;;
11173;SDS011;5643;50.856;12.088;2023-02-20T10:42:18;1.67;;;1.40;;
11173;SDS011;5643;50.856;12.088;2023-02-20T10:44:50;1.40;;;1.30;;
11173;SDS011;5643;50.856;12.088;2023-02-20T10:47:20;1.60;;;1.20;;
11173;SDS011;5643;50.856;12.088;2023-02-20T10:49:55;1.23;;;1.13;;
11173;SDS011;5643;50.856;12.088;2023-02-20T10:52:26;1.20;;;1.10;;
11173;SDS011;5643;50.856;12.088;2023-02-20T10:54:54;1.00;;;0.90;;
11173;SDS011;5643;50.856;12.088;2023-02-20T10:57:27;1.27;;;1.10;;
11173;SDS011;5643;50.856;12.088;2023-02-20T10:59:57;2.10;;;1.20;;
11173;SDS011;5643;50.856;12.088;2023-02-20T11:02:31;0.83;;;0.83;;
11173;SDS011;5643;50.856;12.088;2023-02-20T11:05:00;1.20;;;1.10;;
11173;SDS011;5643;50.856;12.088;2023-02-20T11:07:34;1.20;;;1.10;;
11173;SDS011;5643;50.856;12.088;2023-02-20T11:10:01;1.20;;;1.10;;
11173;SDS011;5643;50.856;12.088;2023-02-20T11:12:29;2.10;;;1.10;;
11173;SDS011;5643;50.856;12.088;2023-02-20T11:14:58;1.23;;;1.07;;
11173;SDS011;5643;50.856;12.088;2023-02-20T11:17:27;1.97;;;0.93;;
11173;SDS011;5643;50.856;12.088;2023-02-20T11:19:55;1.27;;;1.00;;
11173;SDS011;5643;50.856;12.088;2023-02-20T11:22:39;1.00;;;0.80;;
11173;SDS011;5643;50.856;12.088;2023-02-20T11:25:16;1.30;;;0.70;;
11173;SDS011;5643;50.856;12.088;2023-02-20T11:27:44;0.90;;;0.90;;
11173;SDS011;5643;50.856;12.088;2023-02-20T11:30:21;2.00;;;1.03;;
11173;SDS011;5643;50.856;12.088;2023-02-20T11:32:50;1.80;;;0.90;;
11173;SDS011;5643;50.856;12.088;2023-02-20T11:35:27;0.80;;;0.73;;
11173;SDS011;5643;50.856;12.088;2023-02-20T11:40:46;0.73;;;0.70;;
11173;SDS011;5643;50.856;12.088;2023-02-20T11:43:14;0.93;;;0.60;;
11173;SDS011;5643;50.856;12.088;2023-02-20T11:45:43;1.50;;;0.93;;
11173;SDS011;5643;50.856;12.088;2023-02-20T11:48:12;1.17;;;0.80;;
11173;SDS011;5643;50.856;12.088;2023-02-20T11:50:40;0.90;;;0.80;;
11173;SDS011;5643;50.856;12.088;2023-02-20T11:53:10;0.53;;;0.50;;
11173;SDS011;5643;50.856;12.088;2023-02-20T11:55:42;0.70;;;0.60;;
11173;SDS011;5643;50.856;12.088;2023-02-20T11:58:18;0.70;;;0.67;;
11173;SDS011;5643;50.856;12.088;2023-02-20T12:00:48;1.00;;;0.60;;
11173;SDS011;5643;50.856;12.088;2023-02-20T12:03:21;1.07;;;0.83;;
11173;SDS011;5643;50.856;12.088;2023-02-20T12:05:49;0.60;;;0.60;;
11173;SDS011;5643;50.856;12.088;2023-02-20T12:08:22;0.87;;;0.60;;
11173;SDS011;5643;50.856;12.088;2023-02-20T12:10:54;0.83;;;0.50;;
11173;SDS011;5643;50.856;12.088;2023-02-20T12:13:27;0.67;;;0.40;;
11173;SDS011;5643;50.856;12.088;2023-02-20T12:15:57;1.10;;;0.67;;
11173;SDS011;5643;50.856;12.088;2023-02-20T12:18:33;0.70;;;0.70;;
11173;SDS011;5643;50.856;12.088;2023-02-20T12:21:13;0.87;;;0.60;;
11173;SDS011;5643;50.856;12.088;2023-02-20T12:23:47;1.27;;;0.60;;
11173;SDS011;5643;50.856;12.088;2023-02-20T12:26:19;0.90;;;0.60;;
11173;SDS011;5643;50.856;12.088;2023-02-20T12:28:52;0.70;;;0.60;;
11173;SDS011;5643;50.856;12.088;2023-02-20T12:31:28;0.63;;;0.50;;
11173;SDS011;5643;50.856;12.088;2023-02-20T12:34:04;0.50;;;0.50;;
11173;SDS011;5643;50.856;12.088;2023-02-20T12:36:38;0.53;;;0.50;;
11173;SDS011;5643;50.856;12.088;2023-02-20T12:39:06;0.70;;;0.43;;
11173;SDS011;5643;50.856;12.088;2023-02-20T12:41:44;0.50;;;0.50;;
11173;SDS011;5643;50.856;12.088;2023-02-20T12:44:31;0.93;;;0.50;;
11173;SDS011;5643;50.856;12.088;2023-02-20T12:47:02;0.60;;;0.60;;
11173;SDS011;5643;50.856;12.088;2023-02-20T12:49:43;0.60;;;0.60;;
11173;SDS011;5643;50.856;12.088;2023-02-20T12:52:23;1.13;;;0.60;;
11173;SDS011;5643;50.856;12.088;2023-02-20T12:54:57;0.70;;;0.60;;
11173;SDS011;5643;50.856;12.088;2023-02-20T12:57:28;1.70;;;1.00;;
11173;SDS011;5643;50.856;12.088;2023-02-20T13:00:01;0.93;;;0.60;;
11173;SDS011;5643;50.856;12.088;2023-02-20T13:02:31;1.30;;;0.70;;
11173;SDS011;5643;50.856;12.088;2023-02-20T13:05:00;0.83;;;0.63;;
11173;SDS011;5643;50.856;12.088;2023-02-20T13:07:29;0.63;;;0.57;;
11173;SDS011;5643;50.856;12.088;2023-02-20T13:09:59;0.50;;;0.50;;
11173;SDS011;5643;50.856;12.088;2023-02-20T13:12:28;1.00;;;0.70;;
11173;SDS011;5643;50.856;12.088;2023-02-20T13:17:41;1.33;;;0.60;;
11173;SDS011;5643;50.856;12.088;2023-02-20T13:20:14;0.70;;;0.70;;
11173;SDS011;5643;50.856;12.088;2023-02-20T13:22:43;0.97;;;0.63;;
11173;SDS011;5643;50.856;12.088;2023-02-20T13:25:35;0.83;;;0.50;;
11173;SDS011;5643;50.856;12.088;2023-02-20T13:28:06;0.97;;;0.50;;
11173;SDS011;5643;50.856;12.088;2023-02-20T13:30:40;1.47;;;0.60;;
11173;SDS011;5643;50.856;12.088;2023-02-20T13:33:15;0.90;;;0.60;;
11173;SDS011;5643;50.856;12.088;2023-02-20T13:35:46;2.13;;;1.00;;
11173;SDS011;5643;50.856;12.088;2023-02-20T13:38:16;0.73;;;0.57;;
11173;SDS011;5643;50.856;12.088;2023-02-20T13:40:45;0.90;;;0.63;;
11173;SDS011;5643;50.856;12.088;2023-02-20T13:43:28;2.07;;;1.30;;
11173;SDS011;5643;50.856;12.088;2023-02-20T13:46:17;1.33;;;0.90;;
11173;SDS011;5643;50.856;12.088;2023-02-20T13:48:52;0.60;;;0.60;;
11173;SDS011;5643;50.856;12.088;2023-02-20T13:51:27;0.70;;;0.50;;
11173;SDS011;5643;50.856;12.088;2023-02-20T13:53:56;0.67;;;0.50;;
11173;SDS011;5643;50.856;12.088;2023-02-20T13:56:44;1.37;;;0.60;;
11173;SDS011;5643;50.856;12.088;2023-02-20T13:59:12;0.60;;;0.60;;
11173;SDS011;5643;50.856;12.088;2023-02-20T14:01:53;1.53;;;0.70;;
11173;SDS011;5643;50.856;12.088;2023-02-20T14:04:23;1.07;;;0.70;;
11173;SDS011;5643;50.856;12.088;2023-02-20T14:06:51;0.70;;;0.50;;
11173;SDS011;5643;50.856;12.088;2023-02-20T14:09:20;0.70;;;0.60;;
11173;SDS011;5643;50.856;12.088;2023-02-20T14:11:49;0.40;;;0.40;;
11173;SDS011;5643;50.856;12.088;2023-02-20T14:14:22;0.90;;;0.60;;
11173;SDS011;5643;50.856;12.088;2023-02-20T14:16:50;1.10;;;0.50;;
11173;SDS011;5643;50.856;12.088;2023-02-20T14:19:19;0.53;;;0.50;;
11173;SDS011;5643;50.856;12.088;2023-02-20T14:21:49;0.70;;;0.40;;
11173;SDS011;5643;50.856;12.088;2023-02-20T14:24:18;0.40;;;0.40;;
11173;SDS011;5643;50.856;12.088;2023-02-20T14:26:46;0.83;;;0.50;;
11173;SDS011;5643;50.856;12.088;2023-02-20T14:29:19;0.50;;;0.40;;
11173;SDS011;5643;50.856;12.088;2023-02-20T14:31:49;0.93;;;0.50;;
11173;SDS011;5643;50.856;12.088;2023-02-20T14:34:18;1.03;;;0.67;;
11173;SDS011;5643;50.856;12.088;2023-02-20T14:36:55;0.60;;;0.53;;
11173;SDS011;5643;50.856;12.088;2023-02-20T14:39:35;0.90;;;0.60;;
11173;SDS011;5643;50.856;12.088;2023-02-20T14:42:09;1.47;;;0.90;;
11173;SDS011;5643;50.856;12.088;2023-02-20T14:44:39;1.00;;;0.67;;
11173;SDS011;5643;50.856;12.088;2023-02-20T14:47:08;0.90;;;0.60;;
11173;SDS011;5643;50.856;12.088;2023-02-20T14:49:38;1.50;;;0.70;;
11173;SDS011;5643;50.856;12.088;2023-02-20T14:52:14;0.70;;;0.63;;
11173;SDS011;5643;50.856;12.088;2023-02-20T14:54:42;0.60;;;0.60;;
11173;SDS011;5643;50.856;12.088;2023-02-20T14:57:11;0.90;;;0.70;;
11173;SDS011;5643;50.856;12.088;2023-02-20T14:59:39;0.80;;;0.77;;
11173;SDS011;5643;50.856;12.088;2023-02-20T15:02:14;0.60;;;0.60;;
11173;SDS011;5643;50.856;12.088;2023-02-20T15:04:46;0.80;;;0.77;;
11173;SDS011;5643;50.856;12.088;2023-02-20T15:07:16;1.27;;;0.90;;
11173;SDS011;5643;50.856;12.088;2023-02-20T15:09:45;0.70;;;0.70;;
11173;SDS011;5643;50.856;12.088;2023-02-20T15:12:21;0.70;;;0.70;;
11173;SDS011;5643;50.856;12.088;2023-02-20T15:14:53;1.13;;;0.80;;
11173;SDS011;5643;50.856;12.088;2023-02-20T15:17:22;0.93;;;0.70;;
11173;SDS011;5643;50.856;12.088;2023-02-20T15:19:50;1.33;;;0.73;;
11173;SDS011;5643;50.856;12.088;2023-02-20T15:22:27;1.00;;;0.80;;
11173;SDS011;5643;50.856;12.088;2023-02-20T15:27:38;1.10;;;1.00;;